メインページ
METAR-TAF:

METAR-TAF

空港 :

サンフランシスコ国際空港

サンフランシスコ, カリフォルニア州, アメリカ合衆国

緯度: 37-37-11N, 経度: 122-21-53W, 海抜: 3m

現時点の気象観測

当レポートは34分前の22:56(UTC)に作成
西/北西の風 14kt
気温 19°C
湿度 64%
気圧 1014 hPa
視程: 16.1km
高度700ftの雲はほとんどない
高度20000ftの雲はほとんどない

METAR: KSFO 212256Z 30014KT 10SM FEW007 FEW200 19/12 A2994 RMK AO2 SLP137 T01940117

時間: 16:30 (23:30 UTC)

予報

当レポートは2時間38分前の20:52(UTC)に作成
予報は21日の 21時(UTC)から 22日の 24時(UTC)まで有効
北/北西の風 8kt
視程: 10km
晴天
21日の 2200時(UTC)から
西/北西の風 14kt
視程: 10km
晴天
22日の 0400時(UTC)から
西/北西の風 7kt
視程: 10km
晴天
22日の 1200時(UTC)から
変向風 4kt
視程: 10km
晴天
22日の 2100時(UTC)から
西/北西の風 16kt
視程: 10km
晴天

TAF: KSFO 212052Z 2121/2224 34008KT P6SM SKC FM212200 29014KT P6SM SKC FM220400 29007KT P6SM SKC FM221200 VRB04KT P6SM SKC FM222100 29016KT P6SM SKC

4,000以上の空港の気象観測と天気予報(METAR報とTAF報)

利用可能な観測所は地図上に黄色い丸と赤い丸で示す。

丸の上にカーソルを重ねると観測所名を参照できる。

次にクリックすると気象観測と天気予報を参照できる。

マップの切り替え:黒色「×」印の緑ボタンをクリックして拡大、「-」印の緑ボタンをクリックして縮小、緑色の三角印をクリックして隣りの地図に切り替え


METAR-TAF: